Date,TemperatureHighF,TemperatureAvgF,TemperatureLowF,DewpointHighF,DewpointAvgF,DewpointLowF,HumidityHigh,HumidityAvg,HumidityLow,PressureMaxIn,PressureMinIn,WindSpeedMaxMPH,WindSpeedAvgMPH,GustSpeedMaxMPH,PrecipitationSumIn
2013-10-1,73.5,68.4,66.1,64.1,61.7,57.6,91,80,59,30.09,30.00,13,3,13,0.00
2013-10-2,78.3,72.3,67.0,70.0,66.4,61.4,91,82,71,30.10,30.01,12,3,12,0.00
2013-10-3,79.3,73.5,71.1,70.8,68.9,62.2,93,86,59,30.12,30.07,12,2,12,0.00
2013-10-4,80.0,74.4,69.3,72.6,68.7,64.6,96,83,63,30.12,30.05,11,1,11,0.01
2013-10-5,80.7,75.4,72.5,72.0,70.4,65.0,93,85,61,30.10,30.03,12,2,12,0.00
2013-10-6,81.0,76.0,71.2,73.7,70.8,69.2,96,85,70,30.07,29.97,15,2,15,0.01
2013-10-7,82.3,78.1,74.7,74.0,73.1,71.2,93,85,72,29.97,29.85,20,4,20,0.01
2013-10-8,75.6,69.5,66.7,73.8,67.5,64.5,95,93,91,30.05,29.88,37,16,37,0.73
2013-10-9,73.4,69.7,66.6,72.2,68.5,64.7,98,96,93,30.01,29.80,39,18,39,0.87
2013-10-10,73.3,68.4,64.0,72.4,67.1,62.4,98,96,93,29.83,29.73,24,12,24,0.01
2013-10-11,66.8,65.2,63.4,64.4,63.4,62.1,97,94,91,29.91,29.79,19,10,19,0.02
2013-10-12,69.4,67.0,65.5,67.0,64.7,63.0,94,92,90,30.00,29.88,10,3,12,0.00
2013-10-13,73.6,70.5,68.8,71.8,67.9,-99.9,96,93,92,30.07,29.98,21,1,21,0.00
2013-10-14,71.8,70.7,68.7,69.6,68.0,65.5,95,91,86,30.10,30.04,30,15,30,0.01
2013-10-15,72.4,70.1,67.9,69.8,67.9,65.1,95,93,89,30.06,29.93,28,15,28,0.00
2013-10-16,71.2,69.9,68.5,68.9,67.9,66.7,94,93,92,29.95,29.90,19,8,19,0.00
2013-10-17,73.7,69.7,66.2,69.3,67.0,65.2,98,92,79,29.94,29.84,15,4,15,0.00
2013-10-18,71.7,70.7,69.5,69.7,67.8,64.8,94,90,84,29.98,29.85,16,7,16,0.00
2013-10-19,73.8,72.1,69.3,71.8,70.4,68.1,97,95,91,29.91,29.81,15,3,15,0.34
2013-10-20,72.0,65.6,62.2,70.8,60.0,54.3,96,82,75,30.08,29.83,24,12,24,0.00
2013-10-21,67.8,64.9,60.3,63.3,57.7,50.7,88,78,67,30.11,29.95,16,7,16,0.00
2013-10-22,67.1,65.8,64.7,63.2,58.7,52.3,88,78,66,29.96,29.80,19,6,19,0.01
2013-10-23,69.5,63.6,60.4,61.8,58.3,49.6,96,83,66,29.89,29.61,32,9,32,0.66
2013-10-24,60.8,55.4,51.0,52.1,44.1,40.0,80,66,51,30.13,29.89,31,12,31,0.00
2013-10-25,57.0,53.7,49.6,44.6,39.1,33.5,75,58,45,30.30,30.13,26,12,26,0.00
2013-10-26,59.3,56.0,53.6,52.7,45.0,38.2,80,67,56,30.30,30.07,17,7,17,0.00
2013-10-27,62.3,57.4,52.4,50.5,47.5,45.1,84,70,60,30.13,30.04,15,3,15,0.00
2013-10-28,68.8,59.7,51.8,58.1,53.5,47.9,94,81,54,30.23,30.13,9,1,9,0.00
2013-10-29,62.5,62.0,61.2,58.3,57.7,57.1,87,86,84,30.23,30.21,4,1,4,0.00
2013-10-30,70.4,66.6,63.0,60.7,57.8,52.9,88,74,59,30.29,30.17,8,1,8,0.00
2013-10-31,74.0,67.9,59.4,69.4,64.5,57.6,96,89,78,30.20,29.99,21,3,21,0.00